Latest Weather Observations for Gladstone

IDQ60801

Issued at 4:02 pm EST Wednesday 22 February 2017 (issued every 30 minutes, with the page automatically refreshed every 10 minutes)

About weather observations | Map of weather stations | Latest weather observations for QLD | Other Formats
Station Details ID: 039123 Name: GLADSTONE RADAR Lat: -23.86 Lon: 151.26 Height: 74.5 m
Data from the previous 72 hours. | See also: Recent months at Gladstone
Date/Time
EST
Temp
°C
App
Temp
°C
Dew
Point
°C
Rel
Hum
%
Delta-T
°C
Wind Press
QNH
hPa
Press
MSL
hPa
Rain since
9am
mm
Dir  Spd
km/h
Gust
km/h
Spd
kts
Gust
kts
22/04:00pm 29.6 25.6 19.3 54 6.7 E 39 54 21 29 1013.6 1013.2 0.0
22/03:47pm 29.6 25.5 19.9 56 6.4 E 41 61 22 33 1013.5 1013.1 0.0
22/03:30pm 29.7 24.0 17.2 47 7.9 E 43 54 23 29 1013.4 1013.0 0.0
22/03:00pm 30.0 25.4 18.8 51 7.3 E 41 61 22 33 1013.5 1013.1 0.0
22/02:30pm 30.5 26.8 19.2 51 7.4 E 37 57 20 31 1013.8 1013.4 0.0
22/02:04pm 30.9 27.2 18.3 47 8.1 E 35 56 19 30 1014.0 1013.6 0.0
22/02:00pm 31.1 27.7 19.1 48 7.8 ENE 35 52 19 28 1014.1 1013.7 0.0
22/01:45pm 31.2 27.4 18.9 48 8.0 ENE 37 57 20 31 1014.1 1013.7 0.0
22/01:30pm 31.1 27.9 19.4 49 7.7 E 35 52 19 28 1014.3 1013.9 0.0
22/01:00pm 31.7 28.4 19.3 47 8.1 E 35 50 19 27 1014.8 1014.4 0.0
22/12:30pm 30.7 26.5 18.1 47 8.1 E 37 50 20 27 1015.1 1014.7 0.0
22/12:00pm 30.5 27.3 19.5 51 7.2 E 35 50 19 27 1015.6 1015.2 0.0
22/11:30am 31.2 28.1 18.9 48 8.0 E 33 48 18 26 1015.9 1015.5 0.0
22/11:04am 31.7 29.3 20.0 50 7.8 E 32 50 17 27 1016.1 1015.7 0.0
22/11:00am 31.1 28.6 20.1 52 7.3 ESE 33 48 18 26 1016.2 1015.8 0.0
22/10:32am 30.3 28.0 19.3 51 7.2 ESE 30 48 16 26 1016.4 1016.0 0.0
22/10:30am 30.2 28.8 20.4 55 6.5 ESE 28 43 15 23 1016.6 1016.2 0.0
22/10:00am 28.7 26.2 18.8 55 6.4 ESE 30 44 16 24 1016.7 1016.3 0.0
22/09:47am 29.8 28.1 19.8 55 6.6 ESE 28 46 15 25 1016.8 1016.4 0.0
22/09:30am 28.7 28.0 20.2 60 5.6 ESE 24 37 13 20 1016.9 1016.5 0.0
22/09:00am 27.3 26.5 20.1 64 4.7 ESE 24 32 13 17 1017.1 1016.7 1.6
22/08:30am 26.3 25.4 19.9 68 4.2 SE 24 37 13 20 1017.2 1016.8 1.4
22/08:00am 27.0 27.3 20.3 66 4.4 SSE 19 32 10 17 1016.9 1016.5 0.0
22/07:30am 25.0 25.2 20.5 76 2.9 SE 20 32 11 17 1016.5 1016.1 0.0
22/07:00am 24.5 24.8 20.4 78 2.7 SE 19 28 10 15 1016.5 1016.1 0.0
22/06:30am 24.5 24.8 20.8 80 2.4 SE 20 32 11 17 1016.3 1015.9 0.0
22/06:00am 24.3 24.9 21.0 82 2.2 SE 19 28 10 15 1015.8 1015.4 0.0
22/05:30am 24.4 25.4 21.1 82 2.2 SE 17 28 9 15 1015.7 1015.3 0.0
22/05:00am 24.5 26.0 21.2 82 2.2 SE 15 30 8 16 1015.3 1014.9 0.0
22/04:30am 24.4 25.4 21.1 82 2.2 SE 17 28 9 15 1015.0 1014.6 0.0
22/04:00am 24.5 25.6 21.2 82 2.2 SE 17 28 9 15 1014.8 1014.4 0.0
22/03:30am 24.6 26.1 21.3 82 2.2 SE 15 22 8 12 1014.5 1014.1 0.0
22/03:00am 24.5 26.1 21.4 83 2.1 SSE 15 20 8 11 1014.7 1014.3 0.0
22/02:30am 24.6 25.7 21.3 82 2.2 SE 17 26 9 14 1014.7 1014.3 0.0
22/02:00am 24.7 26.3 21.4 82 2.2 SSE 15 22 8 12 1014.8 1014.4 0.0
22/01:30am 25.0 25.9 21.5 81 2.3 SE 19 26 10 14 1014.8 1014.4 0.0
22/01:00am 25.5 26.4 21.6 79 2.6 SE 19 26 10 14 1015.1 1014.7 0.0
22/12:30am 25.7 26.8 22.0 80 2.5 ESE 19 28 10 15 1015.3 1014.9 0.0
22/12:00am 25.9 26.7 22.4 81 2.4 ESE 22 35 12 19 1015.4 1015.0 0.0
 
Date/Time
EST
Temp
°C
App
Temp
°C
Dew
Point
°C
Rel
Hum
%
Delta-T
°C
Wind Press
QNH
hPa
Press
MSL
hPa
Rain since
9am
mm
Dir  Spd
km/h
Gust
km/h
Spd
kts
Gust
kts
21/11:30pm 26.0 26.7 22.3 80 2.5 ESE 22 35 12 19 1015.5 1015.1 0.0
21/11:00pm 26.1 27.5 22.6 81 2.4 SE 19 30 10 16 1015.7 1015.3 0.0
21/10:30pm 26.2 26.6 23.1 83 2.1 ESE 26 39 14 21 1015.6 1015.2 0.0
21/10:00pm 26.7 26.5 22.8 79 2.6 E 28 39 15 21 1015.5 1015.1 0.0
21/09:30pm 27.2 26.2 22.6 76 3.1 E 32 46 17 25 1015.5 1015.1 0.0
21/09:00pm 27.2 27.2 23.0 78 2.9 E 28 41 15 22 1015.4 1015.0 0.0
21/08:30pm 27.1 27.4 22.9 78 2.9 E 26 39 14 21 1015.4 1015.0 0.0
21/08:00pm 27.2 26.7 22.8 77 3.0 E 30 44 16 24 1015.1 1014.7 0.0
21/07:30pm 27.2 26.4 23.0 78 2.9 E 32 39 17 21 1014.7 1014.3 0.0
21/07:00pm 27.2 26.7 22.8 77 3.0 E 30 43 16 23 1014.5 1014.1 0.0
21/06:30pm 27.3 27.5 22.7 76 3.1 E 26 37 14 20 1014.3 1013.9 0.0
21/06:00pm 27.6 27.2 22.3 73 3.6 E 28 41 15 22 1014.0 1013.6 0.0
21/05:30pm 28.0 27.0 22.0 70 4.0 E 30 41 16 22 1013.7 1013.3 0.0
21/05:00pm 28.8 28.7 22.3 68 4.4 ENE 26 41 14 22 1013.3 1012.8 0.0
21/04:30pm 30.0 29.8 22.7 65 5.0 ENE 28 41 15 22 1013.1 1012.6 0.0
21/04:00pm 30.2 28.9 22.1 62 5.5 ENE 32 44 17 24 1013.1 1012.6 0.0
21/03:30pm 30.3 29.7 22.7 64 5.2 ENE 30 43 16 23 1013.0 1012.5 0.0
21/03:00pm 29.9 30.0 22.6 65 5.0 ENE 26 41 14 22 1013.0 1012.5 0.0
21/02:30pm 31.6 31.4 23.4 61 5.7 ENE 30 41 16 22 1013.2 1012.7 0.0
21/02:00pm 32.2 32.8 23.4 59 6.1 ENE 26 37 14 20 1013.3 1012.8 0.0
21/01:30pm 29.8 28.7 22.5 65 5.0 ENE 32 43 17 23 1013.5 1013.1 0.0
21/01:00pm 30.7 30.4 22.6 62 5.5 ENE 28 41 15 22 1013.7 1013.3 0.0
21/12:30pm 33.1 33.1 23.7 57 6.6 ENE 30 41 16 22 1013.8 1013.4 0.0
21/12:00pm 32.3 32.8 23.3 59 6.2 ENE 26 35 14 19 1014.2 1013.8 0.0
21/11:30am 32.8 34.5 24.6 62 5.8 ENE 24 32 13 17 1014.5 1014.1 0.0
21/11:00am 30.6 31.3 22.2 61 5.7 ENE 22 30 12 16 1014.6 1014.2 0.0
21/10:30am 30.5 31.6 21.9 60 5.8 ENE 19 28 10 15 1015.1 1014.7 0.0
21/10:00am 32.2 34.0 23.2 59 6.2 ENE 19 30 10 16 1015.0 1014.6 0.0
21/09:30am 30.6 31.1 20.8 56 6.5 ENE 19 28 10 15 1015.1 1014.7 0.0
21/09:00am 29.7 30.8 20.5 57 6.1 SE 15 33 8 18 1015.1 1014.7 0.0
21/08:30am 29.6 31.2 22.1 64 5.1 SE 17 26 9 14 1015.0 1014.6 0.0
21/08:00am 28.0 30.4 22.2 70 3.9 SSE 13 26 7 14 1014.8 1014.4 0.0
21/07:30am 25.5 28.1 22.0 81 2.3 SE 11 20 6 11 1014.7 1014.3 0.0
21/07:00am 25.2 26.6 21.9 82 2.2 SE 17 26 9 14 1014.5 1014.1 0.0
21/06:30am 25.2 26.9 22.3 84 1.9 SE 17 24 9 13 1014.2 1013.8 0.0
21/06:00am 25.2 27.7 22.5 85 1.8 SSE 13 19 7 10 1013.7 1013.3 0.0
21/05:30am 25.3 27.9 22.6 85 1.8 SE 13 20 7 11 1013.5 1013.1 0.0
21/05:00am 25.3 27.6 22.8 86 1.7 SSE 15 20 8 11 1013.3 1012.8 0.0
21/04:30am 25.4 28.1 22.9 86 1.7 SSE 13 20 7 11 1012.8 1012.3 0.0
21/04:00am 25.5 27.9 23.0 86 1.7 SE 15 22 8 12 1012.6 1012.1 0.0
21/03:30am 25.6 28.5 23.1 86 1.7 SE 13 20 7 11 1012.2 1011.7 0.0
21/03:00am 25.6 29.2 23.1 86 1.7 SSE 9 17 5 9 1011.9 1011.4 0.0
21/02:30am 25.6 28.8 23.1 86 1.7 SSE 11 17 6 9 1012.0 1011.5 0.0
21/02:00am 25.8 29.3 23.5 87 1.6 SSE 11 17 6 9 1012.1 1011.6 0.0
21/01:30am 25.6 29.1 23.5 88 1.4 SSE 11 15 6 8 1012.2 1011.7 0.0
21/01:00am 25.5 29.3 23.4 88 1.4 SE 9 13 5 7 1012.3 1011.8 0.0
21/12:30am 25.9 29.7 23.4 86 1.7 N 9 13 5 7 1012.5 1012.0 0.0
21/12:00am 26.0 30.1 23.3 85 1.8 NNE 7 11 4 6 1012.8 1012.3 0.0
 
Date/Time
EST
Temp
°C
App
Temp
°C
Dew
Point
°C
Rel
Hum
%
Delta-T
°C
Wind Press
QNH
hPa
Press
MSL
hPa
Rain since
9am
mm
Dir  Spd
km/h
Gust
km/h
Spd
kts
Gust
kts
20/11:30pm 25.8 29.9 23.3 86 1.7 NNE 7 9 4 5 1012.9 1012.4 0.0
20/11:00pm 25.7 29.9 23.2 86 1.7 NNE 6 7 3 4 1012.8 1012.3 0.0
20/10:30pm 26.0 31.4 23.3 85 1.8 CALM 0 0 0 0 1012.7 1012.2 0.0
20/10:00pm 26.1 31.5 23.2 84 2.0 CALM 0 0 0 0 1012.7 1012.2 0.0
20/09:30pm 26.5 30.7 23.2 82 2.3 NNE 6 9 3 5 1012.6 1012.1 0.0
20/09:00pm 26.8 30.5 23.3 81 2.4 NNE 9 11 5 6 1012.4 1011.9 0.0
20/08:30pm 26.8 31.2 23.5 82 2.3 NNE 6 9 3 5 1012.2 1011.7 0.0
20/08:00pm 26.8 30.4 23.1 80 2.5 NNE 9 15 5 8 1011.9 1011.4 0.0
20/07:30pm 27.0 30.5 23.5 81 2.4 NE 11 15 6 8 1011.5 1011.0 0.0
20/07:00pm 27.1 29.8 22.9 78 2.9 NE 13 20 7 11 1011.1 1010.6 0.0
20/06:30pm 27.5 29.6 23.1 77 3.0 NE 17 26 9 14 1010.8 1010.3 0.0
20/06:00pm 27.9 30.2 22.8 74 3.5 NE 15 26 8 14 1010.1 1009.6 0.0
20/05:30pm 28.4 30.0 22.2 69 4.2 NE 17 24 9 13 1009.6 1009.1 0.0
20/05:00pm 29.2 30.7 22.7 68 4.4 NE 19 26 10 14 1009.1 1008.6 0.0
20/04:30pm 29.7 30.8 21.9 63 5.3 NE 19 24 10 13 1008.9 1008.4 0.0
20/04:00pm 30.8 31.7 21.6 58 6.2 NE 19 28 10 15 1008.7 1008.2 0.0
20/03:30pm 31.2 32.2 21.7 57 6.4 NE 19 28 10 15 1008.6 1008.1 0.0
20/03:00pm 31.8 32.9 21.9 55 6.7 NE 19 24 10 13 1008.8 1008.3 0.0
20/02:30pm 32.1 33.5 21.9 54 6.9 NE 17 28 9 15 1008.9 1008.4 0.0
20/02:00pm 32.0 33.0 21.8 54 6.9 NE 19 30 10 16 1009.2 1008.7 0.0
20/01:30pm 32.1 33.7 22.2 56 6.8 ENE 17 26 9 14 1009.3 1008.8 0.0
20/01:00pm 31.2 31.5 20.5 53 7.1 ENE 19 26 10 14 1009.6 1009.1 0.0
20/12:30pm 33.6 34.6 21.1 48 8.4 ENE 17 24 9 13 1009.9 1009.4 0.0
20/12:00pm 33.1 34.3 20.6 47 8.4 NE 15 22 8 12 1010.3 1009.8 0.0
20/11:30am 32.5 33.7 21.4 52 7.5 ENE 17 26 9 14 1010.6 1010.1 0.0
20/11:00am 32.0 33.3 20.9 52 7.5 NE 15 24 8 13 1010.7 1010.2 0.0
20/10:30am 32.3 34.1 21.2 52 7.5 NE 13 17 7 9 1011.1 1010.6 0.0
20/10:00am 31.8 33.9 21.0 52 7.3 NE 11 19 6 10 1011.2 1010.7 0.0
20/09:30am 31.3 33.7 21.5 56 6.6 NE 11 17 6 9 1011.2 1010.7 0.0
20/09:00am 29.1 32.6 21.1 62 5.3 S 4 15 2 8 1011.3 1010.8 0.0
20/08:30am 27.9 30.1 19.1 58 5.7 SSW 6 13 3 7 1011.3 1010.8 0.0
20/08:00am 26.9 29.1 20.5 68 4.2 SSW 9 17 5 9 1011.0 1010.5 0.0
20/07:30am 25.9 27.8 20.5 72 3.5 SSW 11 17 6 9 1010.8 1010.3 0.0
20/07:00am 24.8 27.8 21.3 81 2.3 SW 7 13 4 7 1010.5 1010.0 0.0
20/06:30am 24.2 26.9 21.3 84 1.9 WSW 9 17 5 9 1010.3 1009.8 0.0
20/06:00am 24.0 27.0 21.3 85 1.8 SW 7 9 4 5 1009.8 1009.3 0.0
20/05:30am 23.8 26.5 21.3 86 1.6 SW 9 15 5 8 1009.3 1008.8 0.0
20/05:00am 23.9 27.1 21.6 87 1.5 SW 7 9 4 5 1009.0 1008.5 0.0
20/04:30am 24.1 27.4 21.8 87 1.5 SW 7 11 4 6 1008.9 1008.4 0.0
20/04:00am 24.2 27.2 21.9 87 1.5 SW 9 13 5 7 1008.6 1008.1 0.0
20/03:30am 24.4 27.1 22.1 87 1.5 SW 11 15 6 8 1008.4 1007.9 0.0
20/03:00am 24.8 27.9 22.1 85 1.8 WSW 9 15 5 8 1008.4 1007.9 0.0
20/02:30am 25.3 28.3 22.0 82 2.2 WSW 9 17 5 9 1008.5 1008.0 0.0
20/02:00am 25.5 28.0 21.8 80 2.5 SW 11 17 6 9 1008.6 1008.1 0.0
20/01:30am 25.6 28.3 21.3 77 2.9 WSW 9 15 5 8 1008.8 1008.3 0.0
20/01:00am 25.7 27.6 21.4 77 2.9 WSW 13 20 7 11 1009.0 1008.5 0.0
20/12:30am 26.0 28.3 21.4 76 3.1 WSW 11 20 6 11 1009.2 1008.7 0.0
20/12:00am 26.9 31.0 23.2 80 2.5 ENE 7 11 4 6 1009.0 1008.5 0.0
 
Date/Time
EST
Temp
°C
App
Temp
°C
Dew
Point
°C
Rel
Hum
%
Delta-T
°C
Wind Press
QNH
hPa
Press
MSL
hPa
Rain since
9am
mm
Dir  Spd
km/h
Gust
km/h
Spd
kts
Gust
kts
19/11:30pm 26.9 31.0 23.2 80 2.5 NE 7 11 4 6 1009.1 1008.6 0.0
19/11:00pm 26.8 30.3 22.8 79 2.7 NE 9 13 5 7 1009.3 1008.8 0.0
19/10:30pm 26.9 30.5 22.3 76 3.1 NNE 7 9 4 5 1009.5 1009.0 0.0
19/10:00pm 27.1 32.0 22.3 75 3.2 CALM 0 0 0 0 1009.8 1009.3 0.0
19/09:30pm 27.0 31.7 22.0 74 3.4 CALM 0 0 0 0 1009.9 1009.4 0.0
19/09:00pm 27.0 31.3 22.0 74 3.4 N 2 6 1 3 1009.8 1009.3 0.0
19/08:30pm 27.2 30.6 21.7 72 3.7 N 6 11 3 6 1009.1 1008.6 0.0
19/08:00pm 27.3 30.5 21.6 71 3.8 N 7 13 4 7 1008.6 1008.1 0.0
19/07:30pm 27.6 30.4 20.9 67 4.4 NW 7 13 4 7 1008.4 1007.9 0.0
19/07:00pm 27.7 30.7 21.3 68 4.3 NW 7 15 4 8 1008.3 1007.8 0.0
19/06:30pm 27.8 30.1 21.3 67 4.3 NNW 11 20 6 11 1007.9 1007.4 0.0
19/06:00pm 27.9 29.8 21.4 67 4.4 N 13 24 7 13 1007.4 1006.9 0.0
19/05:30pm 28.0 29.0 21.1 66 4.6 N 17 26 9 14 1007.0 1006.5 0.0
19/05:00pm 28.6 29.8 20.6 62 5.3 N 15 24 8 13 1006.5 1006.0 0.0
19/04:30pm 29.5 30.0 20.9 60 5.7 NNE 19 28 10 15 1006.1 1005.6 0.0

Other Formats:

Comma delimited format used in spreadsheet applications
http://www.bom.gov.au/fwo/IDQ60801/IDQ60801.94380.axf

JavaScript Object Notation format (JSON) in row-major order
http://www.bom.gov.au/fwo/IDQ60801/IDQ60801.94380.json